Time;durP1;ratioP1;P1;durP2;ratioP2;P2;SDS_P1;SDS_P2;PMS_P1;PMS_P2;Temp;Humidity;BMP_temperature;BMP_pressure;BME280_temperature;BME280_humidity;BME280_pressure;Samples;Min_cycle;Max_cycle;Signal;HPM_P1;HPM_P2
2022/11/13 00:14:56;;;;;;;2.90;2.62;;;;;;;7.98;100.00;100910.05;1773152;78;23178;-64
2022/11/13 00:17:42;;;;;;;3.15;2.87;;;;;;;8.47;100.00;100929.55;1733700;80;21418;-65
2022/11/13 00:20:27;;;;;;;2.87;2.60;;;;;;;8.69;100.00;100918.33;1732891;80;21884;-64
2022/11/13 00:23:13;;;;;;;4.12;2.60;;;;;;;8.82;100.00;100909.84;1740174;80;21442;-63
2022/11/13 00:26:11;;;;;;;4.45;2.52;;;;;;;8.93;100.00;100899.59;1734832;80;21109;-62
2022/11/13 00:28:58;;;;;;;2.65;2.45;;;;;;;9.06;100.00;100892.39;1725356;80;21540;-63
2022/11/13 00:31:43;;;;;;;3.90;2.25;;;;;;;9.16;100.00;100893.95;1731013;81;21557;-63
2022/11/13 00:34:28;;;;;;;2.62;2.37;;;;;;;9.25;100.00;100890.32;1740909;80;21886;-64
2022/11/13 00:37:13;;;;;;;5.42;2.40;;;;;;;9.35;100.00;100889.70;1738219;80;21465;-64
2022/11/13 00:39:59;;;;;;;4.05;2.27;;;;;;;9.41;100.00;100888.27;1737105;80;21917;-63
2022/11/13 00:42:44;;;;;;;2.00;1.90;;;;;;;9.47;100.00;100884.21;1737224;80;21596;-65
2022/11/13 00:45:29;;;;;;;3.37;2.30;;;;;;;9.54;100.00;100882.36;1719949;81;21542;-66
2022/11/13 00:48:14;;;;;;;3.75;2.27;;;;;;;9.58;100.00;100878.77;1730568;80;21809;-65
2022/11/13 00:51:00;;;;;;;4.95;2.20;;;;;;;9.62;100.00;100873.88;1743338;81;21525;-63
2022/11/13 00:53:46;;;;;;;4.60;1.80;;;;;;;9.64;100.00;100863.34;1736761;80;21446;-63
2022/11/13 00:56:31;;;;;;;1.95;1.77;;;;;;;9.64;100.00;100861.58;1742753;80;21501;-64
2022/11/13 00:59:16;;;;;;;2.40;2.20;;;;;;;9.66;100.00;100860.23;1735860;80;21045;-64
2022/11/13 01:02:01;;;;;;;2.62;2.02;;;;;;;9.67;100.00;100854.11;1723643;80;21804;-65
2022/11/13 01:04:46;;;;;;;2.12;1.92;;;;;;;9.68;100.00;100848.83;1741804;80;21415;-64
2022/11/13 01:07:31;;;;;;;2.75;2.27;;;;;;;9.68;100.00;100838.75;1731547;80;21534;-64
2022/11/13 01:10:17;;;;;;;2.20;1.72;;;;;;;9.71;100.00;100832.98;1749453;80;20943;-64
2022/11/13 01:13:02;;;;;;;2.02;1.82;;;;;;;9.71;100.00;100842.19;1736850;80;21475;-66
2022/11/13 01:15:49;;;;;;;3.40;2.00;;;;;;;9.72;100.00;100834.73;1735981;80;21475;-64
2022/11/13 01:18:35;;;;;;;2.17;1.92;;;;;;;9.71;100.00;100830.36;1722759;80;21650;-67
2022/11/13 01:21:23;;;;;;;2.12;2.00;;;;;;;9.71;100.00;100835.62;1739455;80;21088;-64
2022/11/13 01:24:09;;;;;;;1.90;1.75;;;;;;;9.70;100.00;100836.95;1737560;80;21509;-63
2022/11/13 01:26:55;;;;;;;2.33;1.50;;;;;;;9.73;100.00;100843.02;1725135;80;21552;-64
2022/11/13 01:29:41;;;;;;;1.85;1.50;;;;;;;9.74;100.00;100829.00;1740193;80;21916;-65
2022/11/13 01:32:27;;;;;;;2.55;2.35;;;;;;;9.73;100.00;100833.83;1727781;80;21490;-66
2022/11/13 01:35:12;;;;;;;2.02;1.92;;;;;;;9.75;100.00;100830.71;1732271;80;21585;-65
2022/11/13 01:37:57;;;;;;;3.40;1.62;;;;;;;9.76;100.00;100834.23;1742287;80;21503;-65
2022/11/13 01:40:46;;;;;;;1.82;1.72;;;;;;;9.78;100.00;100839.45;1739745;80;21479;-66
2022/11/13 01:43:35;;;;;;;2.45;1.60;;;;;;;9.77;100.00;100835.09;1734245;80;21924;-65
2022/11/13 01:46:32;;;;;;;2.02;1.75;;;;;;;9.76;100.00;100836.86;1745082;81;21002;-64
2022/11/13 01:49:48;;;;;;;2.00;1.80;;;;;;;9.75;100.00;100833.80;1731875;80;21561;-66
2022/11/13 01:52:36;;;;;;;1.60;1.50;;;;;;;9.74;100.00;100838.19;1714580;81;21494;-66
2022/11/13 01:55:21;;;;;;;2.27;1.60;;;;;;;9.75;100.00;100832.48;1718794;81;21026;-63
2022/11/13 01:58:08;;;;;;;2.10;1.55;;;;;;;9.73;100.00;100819.83;1722444;81;21659;-65
2022/11/13 02:00:55;;;;;;;2.08;1.50;;;;;;;9.75;100.00;100822.83;1724255;81;21254;-64
2022/11/13 02:03:41;;;;;;;1.82;1.47;;;;;;;9.74;100.00;100817.18;1721676;81;21571;-63
2022/11/13 02:06:31;;;;;;;3.02;1.45;;;;;;;9.74;100.00;100815.87;1722500;81;21562;-64
2022/11/13 02:09:21;;;;;;;1.55;1.45;;;;;;;9.76;100.00;100809.27;1718715;81;21481;-65
2022/11/13 02:12:09;;;;;;;1.98;1.65;;;;;;;9.78;100.00;100811.88;1730568;81;21797;-65
2022/11/13 02:14:56;;;;;;;1.70;1.50;;;;;;;9.80;100.00;100812.70;1718063;82;21532;-64
2022/11/13 02:17:47;;;;;;;1.60;1.50;;;;;;;9.79;100.00;100811.81;1719708;81;21597;-65
2022/11/13 02:20:53;;;;;;;1.50;1.40;;;;;;;9.83;100.00;100810.88;1719473;81;21041;-64
2022/11/13 02:23:57;;;;;;;1.50;1.40;;;;;;;9.85;100.00;100820.02;1723669;82;21489;-64
2022/11/13 02:26:42;;;;;;;1.65;1.55;;;;;;;9.88;100.00;100811.62;1715262;81;21767;-64
2022/11/13 02:29:28;;;;;;;1.62;1.50;;;;;;;9.87;100.00;100811.23;1718365;82;21521;-64
2022/11/13 02:32:14;;;;;;;1.77;1.50;;;;;;;9.86;100.00;100809.94;1718993;81;21597;-64
2022/11/13 02:34:59;;;;;;;2.20;1.40;;;;;;;9.85;100.00;100822.64;1717727;81;21494;-64
2022/11/13 02:37:43;;;;;;;1.57;1.47;;;;;;;9.87;100.00;100818.22;1722039;81;21642;-64
2022/11/13 02:40:29;;;;;;;1.22;1.12;;;;;;;9.91;100.00;100819.45;1721376;81;21937;-65
2022/11/13 02:43:14;;;;;;;1.62;1.22;;;;;;;9.94;100.00;100819.83;1717450;81;21557;-64
2022/11/13 02:45:59;;;;;;;1.45;1.20;;;;;;;9.94;100.00;100820.72;1717093;81;21548;-64
2022/11/13 02:48:46;;;;;;;1.60;1.50;;;;;;;9.96;100.00;100819.34;1721192;81;21560;-63
2022/11/13 02:51:30;;;;;;;1.50;1.40;;;;;;;10.00;100.00;100821.45;1715851;81;21561;-64
2022/11/13 02:54:15;;;;;;;1.42;1.30;;;;;;;10.00;100.00;100818.41;1703650;82;21903;-64
2022/11/13 02:57:00;;;;;;;3.00;1.20;;;;;;;9.98;100.00;100817.55;1713054;81;21525;-64
2022/11/13 02:59:46;;;;;;;1.32;1.20;;;;;;;9.99;100.00;100814.03;1712189;81;21549;-64
2022/11/13 03:02:31;;;;;;;1.30;1.20;;;;;;;10.02;100.00;100832.38;1715487;82;21644;-64
2022/11/13 06:29:32;;;;;;;2.00;1.20;;;;;;;8.30;100.00;100925.81;1802624;78;27400;-61
2022/11/13 06:32:18;;;;;;;3.33;1.27;;;;;;;8.84;100.00;100948.25;1770279;80;21488;-60
2022/11/13 06:35:05;;;;;;;1.10;1.02;;;;;;;9.08;100.00;100944.39;1764969;79;21517;-60
2022/11/13 06:37:51;;;;;;;1.27;1.17;;;;;;;9.28;100.00;100939.25;1769209;80;21540;-60
2022/11/13 06:40:39;;;;;;;2.95;1.20;;;;;;;9.47;100.00;100933.23;1747801;80;21042;-61
2022/11/13 06:43:25;;;;;;;4.42;1.30;;;;;;;9.62;100.00;100935.58;1765200;80;21587;-60
2022/11/13 06:46:14;;;;;;;1.20;1.10;;;;;;;9.73;100.00;100924.43;1761735;80;21654;-59
2022/11/13 06:49:00;;;;;;;1.17;1.07;;;;;;;9.85;100.00;100919.84;1768290;80;21529;-59
2022/11/13 06:51:46;;;;;;;1.35;1.05;;;;;;;9.99;100.00;100916.50;1747579;79;21481;-61
2022/11/13 06:54:31;;;;;;;0.98;0.88;;;;;;;10.09;100.00;100916.72;1772850;79;21606;-61
2022/11/13 06:57:16;;;;;;;1.05;0.72;;;;;;;10.14;100.00;100903.50;1761029;79;21061;-60
2022/11/13 07:00:02;;;;;;;0.70;0.70;;;;;;;10.21;100.00;100898.97;1766154;79;21080;-61
2022/11/13 07:02:50;;;;;;;0.62;0.62;;;;;;;10.26;100.00;100897.11;1762316;80;21748;-60
2022/11/13 07:05:36;;;;;;;1.25;0.50;;;;;;;10.33;100.00;100891.72;1762898;80;21500;-60
2022/11/13 07:08:22;;;;;;;1.95;0.60;;;;;;;10.39;100.00;100885.92;1774231;79;21599;-59
2022/11/13 07:11:11;;;;;;;1.35;0.75;;;;;;;10.42;100.00;100880.14;1724748;82;20999;-60
2022/11/13 07:13:56;;;;;;;0.70;0.70;;;;;;;10.45;100.00;100873.52;1677412;83;21510;-60
2022/11/13 07:16:41;;;;;;;0.80;0.80;;;;;;;10.52;100.00;100875.08;1682937;83;21549;-62
2022/11/13 07:19:26;;;;;;;0.80;0.80;;;;;;;10.60;100.00;100880.62;1687905;82;21494;-60
2022/11/13 07:22:11;;;;;;;0.80;0.80;;;;;;;10.65;100.00;100884.87;1699822;82;20994;-60
2022/11/13 07:24:57;;;;;;;2.10;0.60;;;;;;;10.70;100.00;100881.69;1763516;79;21505;-62
2022/11/13 07:27:45;;;;;;;1.67;0.78;;;;;;;10.74;100.00;100877.22;1741072;80;21376;-61
2022/11/13 07:30:31;;;;;;;0.50;0.50;;;;;;;10.76;100.00;100874.10;1736201;80;21758;-59
2022/11/13 07:33:16;;;;;;;0.70;0.70;;;;;;;10.83;100.00;100875.69;1739880;80;21650;-59
2022/11/13 07:36:01;;;;;;;0.88;0.82;;;;;;;10.89;100.00;100869.41;1734946;80;21033;-59
2022/11/13 07:38:47;;;;;;;0.70;0.70;;;;;;;10.96;100.00;100867.02;1743227;80;21552;-59
2022/11/13 07:41:32;;;;;;;0.60;0.60;;;;;;;11.00;100.00;100858.59;1760219;78;21537;-60
2022/11/13 07:44:17;;;;;;;0.50;0.50;;;;;;;10.99;100.00;100856.42;1731661;80;21899;-60
2022/11/13 07:47:04;;;;;;;2.47;0.60;;;;;;;11.01;100.00;100853.30;1726926;82;21530;-59
2022/11/13 07:49:48;;;;;;;0.98;0.70;;;;;;;11.06;100.00;100862.41;1716789;81;21521;-60
2022/11/13 07:52:35;;;;;;;0.60;0.50;;;;;;;11.07;100.00;100853.59;1691665;83;21618;-61
2022/11/13 07:55:20;;;;;;;0.80;0.80;;;;;;;11.16;100.00;100859.94;1685131;83;21491;-62
2022/11/13 07:58:06;;;;;;;0.80;0.60;;;;;;;11.20;100.00;100856.78;1700638;82;21549;-60
2022/11/13 08:00:51;;;;;;;0.65;0.65;;;;;;;11.24;100.00;100854.02;1703256;82;21581;-59
2022/11/13 08:03:36;;;;;;;2.42;0.72;;;;;;;11.27;100.00;100857.89;1695572;83;21549;-62
2022/11/13 08:06:22;;;;;;;1.05;0.80;;;;;;;11.28;100.00;100850.85;1703290;82;21677;-62
2022/11/13 08:09:08;;;;;;;1.50;1.10;;;;;;;11.24;100.00;100842.62;1705059;82;21029;-61
2022/11/13 08:11:53;;;;;;;1.07;0.90;;;;;;;11.26;100.00;100861.45;1707784;83;23050;-62
2022/11/13 08:14:38;;;;;;;1.35;1.25;;;;;;;11.29;100.00;100860.50;1700483;82;21737;-61
2022/11/13 08:17:24;;;;;;;1.10;1.00;;;;;;;11.28;100.00;100863.59;1705176;82;21605;-61
2022/11/13 08:20:10;;;;;;;1.42;1.32;;;;;;;11.34;100.00;100861.67;1685732;83;21510;-61
2022/11/13 08:22:58;;;;;;;1.70;1.60;;;;;;;11.39;100.00;100870.33;1710417;82;21554;-60
2022/11/13 08:25:43;;;;;;;1.72;1.35;;;;;;;11.41;100.00;100865.88;1717479;81;21817;-61
2022/11/13 08:28:31;;;;;;;1.60;1.50;;;;;;;11.44;100.00;100872.39;1709682;81;21560;-61
2022/11/13 08:31:16;;;;;;;1.70;1.60;;;;;;;11.47;100.00;100874.49;1710636;81;21504;-61
2022/11/13 08:34:02;;;;;;;1.37;1.27;;;;;;;11.51;100.00;100875.28;1746485;80;21012;-61
2022/11/13 08:36:47;;;;;;;1.70;1.52;;;;;;;11.58;100.00;100872.00;1732260;80;21654;-62
2022/11/13 08:39:36;;;;;;;2.95;1.50;;;;;;;11.62;100.00;100865.73;1754963;78;21811;-61
2022/11/13 08:42:22;;;;;;;3.02;1.70;;;;;;;11.66;100.00;100872.68;1750401;80;21453;-61
2022/11/13 08:45:09;;;;;;;1.87;1.40;;;;;;;11.65;100.00;100872.25;1756213;79;21682;-61
2022/11/13 08:47:56;;;;;;;2.83;1.67;;;;;;;11.63;100.00;100867.02;1745810;80;21064;-61
2022/11/13 08:50:42;;;;;;;1.55;1.45;;;;;;;11.65;100.00;100866.98;1750990;78;27062;-59
2022/11/13 08:53:27;;;;;;;1.00;1.00;;;;;;;11.64;100.00;100863.50;1737209;80;21580;-59
2022/11/13 08:56:12;;;;;;;3.40;1.20;;;;;;;11.67;100.00;100860.75;1761662;80;21088;-64
2022/11/13 08:58:58;;;;;;;1.20;1.10;;;;;;;11.71;100.00;100858.91;1750528;79;21528;-63
2022/11/13 09:01:43;;;;;;;1.17;1.07;;;;;;;11.76;100.00;100853.52;1757986;80;21005;-64
2022/11/13 09:04:29;;;;;;;1.30;1.20;;;;;;;11.83;100.00;100851.98;1761025;79;21558;-66
2022/11/13 09:07:14;;;;;;;1.10;1.05;;;;;;;11.84;100.00;100844.47;1757972;80;22123;-68
2022/11/13 09:09:59;;;;;;;1.15;1.02;;;;;;;11.80;100.00;100838.88;1755304;78;21057;-65
2022/11/13 09:12:45;;;;;;;1.50;1.10;;;;;;;11.84;100.00;100839.20;1751701;80;21434;-64
2022/11/13 09:15:31;;;;;;;0.95;0.88;;;;;;;11.87;100.00;100836.48;1743903;80;21429;-61
2022/11/13 09:18:17;;;;;;;1.20;1.00;;;;;;;11.94;100.00;100835.90;1758770;80;20946;-63
2022/11/13 09:21:02;;;;;;;1.02;0.70;;;;;;;12.04;100.00;100834.70;1753746;80;21875;-59
2022/11/13 09:23:47;;;;;;;0.70;0.70;;;;;;;12.10;100.00;100832.80;1756366;80;21513;-64
2022/11/13 09:26:34;;;;;;;0.75;0.72;;;;;;;12.16;100.00;100829.97;1759517;80;21611;-61
2022/11/13 09:29:22;;;;;;;0.80;0.80;;;;;;;12.20;100.00;100821.05;1760503;79;21434;-64
2022/11/13 09:32:07;;;;;;;5.35;0.80;;;;;;;12.20;100.00;100824.54;1743153;79;21535;-69
2022/11/13 09:34:53;;;;;;;0.95;0.70;;;;;;;12.28;100.00;100828.25;1757172;79;21635;-66
2022/11/13 09:37:37;;;;;;;0.95;0.85;;;;;;;12.31;100.00;100821.58;1747608;80;21600;-66
2022/11/13 09:40:27;;;;;;;0.70;0.70;;;;;;;12.38;100.00;100821.80;1748439;79;21603;-67
2022/11/13 09:43:23;;;;;;;0.70;0.70;;;;;;;12.42;100.00;100814.19;1752618;80;21571;-67
2022/11/13 09:46:23;;;;;;;0.90;0.80;;;;;;;12.48;100.00;100818.41;1742346;80;21489;-66
2022/11/13 09:49:27;;;;;;;6.00;1.22;;;;;;;12.59;100.00;100810.16;1753973;80;21801;-67
2022/11/13 09:52:18;;;;;;;4.62;1.05;;;;;;;12.65;100.00;100809.48;1747259;80;21622;-65
2022/11/13 09:55:04;;;;;;;1.15;0.88;;;;;;;12.73;100.00;100803.95;1743599;80;21515;-65
2022/11/13 09:58:03;;;;;;;1.02;0.80;;;;;;;12.79;100.00;100794.97;1746311;80;21589;-66
2022/11/13 10:00:49;;;;;;;1.50;0.80;;;;;;;12.82;100.00;100787.81;1758889;80;21576;-64
2022/11/13 10:03:40;;;;;;;1.02;0.80;;;;;;;12.86;100.00;100787.25;1759398;80;20985;-70
2022/11/13 10:06:58;;;;;;;1.62;1.10;;;;;;;12.83;100.00;100794.83;1759061;80;21461;-61
2022/11/13 10:10:22;;;;;;;1.27;0.82;;;;;;;12.83;100.00;100783.42;1757751;80;21425;-65
2022/11/13 10:13:13;;;;;;;1.00;1.00;;;;;;;12.90;100.00;100790.66;1752320;80;21568;-64
2022/11/13 10:16:12;;;;;;;2.87;0.90;;;;;;;12.91;100.00;100781.37;1760242;79;21524;-64
2022/11/13 10:19:06;;;;;;;1.15;1.00;;;;;;;12.94;100.00;100778.63;1760251;80;21798;-64
2022/11/13 10:21:57;;;;;;;1.17;0.98;;;;;;;12.96;100.00;100771.52;1768023;79;21504;-64
2022/11/13 10:24:43;;;;;;;2.95;1.17;;;;;;;12.99;100.00;100786.37;1740483;80;21425;-64
2022/11/13 10:27:28;;;;;;;2.92;1.45;;;;;;;13.04;100.00;100787.09;1772648;79;21032;-63
2022/11/13 10:30:15;;;;;;;1.32;1.22;;;;;;;13.12;100.00;100792.10;1750766;80;21405;-63
2022/11/13 10:33:07;;;;;;;1.62;1.20;;;;;;;13.14;100.00;100784.98;1724499;81;21587;-62
2022/11/13 10:36:07;;;;;;;2.05;1.07;;;;;;;13.09;100.00;100782.52;1732669;81;21549;-62
2022/11/13 10:39:07;;;;;;;1.60;0.90;;;;;;;13.10;100.00;100783.38;1729924;81;21509;-64
2022/11/13 10:41:53;;;;;;;0.80;0.80;;;;;;;13.11;100.00;100784.64;1725334;81;21570;-62
2022/11/13 10:44:39;;;;;;;;;;;;;;;13.11;100.00;100782.44;1714264;81;21552;-63
2022/11/13 10:47:30;;;;;;;0.60;0.60;;;;;;;13.05;100.00;100772.95;1759654;79;20558;-63
2022/11/13 10:50:25;;;;;;;0.88;0.80;;;;;;;13.05;100.00;100779.56;1704840;82;22247;-63
2022/11/13 10:53:15;;;;;;;1.00;0.90;;;;;;;13.38;100.00;100776.21;1710647;81;21493;-63
2022/11/13 10:56:00;;;;;;;1.05;0.90;;;;;;;13.56;100.00;100765.44;1721116;81;21538;-64
2022/11/13 10:59:15;;;;;;;2.83;0.78;;;;;;;13.52;100.00;100769.56;1684198;83;21609;-63
2022/11/13 11:02:12;;;;;;;0.62;0.62;;;;;;;13.58;100.00;100774.17;1687586;82;22081;-64
2022/11/13 11:05:06;;;;;;;0.80;0.80;;;;;;;13.63;100.00;100772.19;1698338;83;21586;-64
2022/11/13 11:07:54;;;;;;;1.77;0.70;;;;;;;13.67;100.00;100764.16;1689822;82;21576;-62
2022/11/13 11:12:14;;;;;;;0.70;0.70;;;;;;;13.71;100.00;100765.77;1674441;83;21569;-65
2022/11/13 11:13:27;;;;;;;1.70;0.88;;;;;;;13.88;100.00;100759.39;1679384;83;21498;-64
2022/11/13 11:16:20;;;;;;;2.05;0.90;;;;;;;14.08;100.00;100755.09;1677254;83;21758;-63
2022/11/13 11:19:09;;;;;;;2.00;0.93;;;;;;;14.18;100.00;100749.83;1684748;83;21496;-64
2022/11/13 11:22:16;;;;;;;0.78;0.78;;;;;;;14.23;100.00;100737.28;1671007;83;21610;-64
2022/11/13 11:25:28;;;;;;;1.00;0.90;;;;;;;14.19;100.00;100731.72;1666779;82;21510;-61
2022/11/13 11:28:42;;;;;;;1.32;0.90;;;;;;;14.26;100.00;100733.64;1701957;82;21444;-64
2022/11/13 11:31:36;;;;;;;1.30;1.02;;;;;;;14.39;100.00;100721.19;1698127;82;21823;-63
2022/11/13 11:35:04;;;;;;;1.42;1.00;;;;;;;14.58;100.00;100714.70;1722067;80;20958;-67
2022/11/13 11:38:04;;;;;;;0.85;0.80;;;;;;;14.70;100.00;100721.72;1748773;80;21609;-64
2022/11/13 11:40:54;;;;;;;2.02;1.20;;;;;;;14.78;100.00;100716.47;1713983;82;21586;-61
2022/11/13 11:43:57;;;;;;;1.07;1.00;;;;;;;14.82;100.00;100721.17;1734449;80;21534;-63
2022/11/13 11:46:42;;;;;;;1.37;1.10;;;;;;;14.84;100.00;100714.48;1736707;80;21632;-66
2022/11/13 11:49:27;;;;;;;1.30;1.20;;;;;;;14.77;100.00;100717.41;1706596;82;21590;-63
2022/11/13 11:52:30;;;;;;;2.02;1.00;;;;;;;14.71;100.00;100711.50;1670620;83;21546;-63
2022/11/13 11:55:50;;;;;;;1.30;1.20;;;;;;;14.60;100.00;100710.66;1661318;82;21453;-63
2022/11/13 11:59:33;;;;;;;1.25;1.15;;;;;;;14.55;100.00;100710.81;1618286;86;21521;-65
2022/11/13 12:02:51;;;;;;;1.95;1.60;;;;;;;14.47;100.00;100696.20;1621584;85;21835;-63
2022/11/13 12:05:55;;;;;;;1.25;1.15;;;;;;;14.54;100.00;100699.84;1634542;85;21544;-64
2022/11/13 12:08:49;;;;;;;1.42;1.07;;;;;;;14.68;100.00;100706.37;1625717;85;21561;-63
2022/11/13 12:11:40;;;;;;;2.80;1.07;;;;;;;14.66;100.00;100695.84;1625754;85;21778;-63
2022/11/13 12:14:34;;;;;;;1.27;1.17;;;;;;;14.44;100.00;100690.55;1627340;86;21695;-63
2022/11/13 12:17:40;;;;;;;1.85;1.60;;;;;;;14.40;100.00;100691.14;1631333;84;21426;-65
2022/11/13 12:20:39;;;;;;;4.22;1.55;;;;;;;14.46;100.00;100692.67;1622839;86;21516;-63
2022/11/13 12:24:03;;;;;;;2.08;1.42;;;;;;;14.58;100.00;100708.08;1617088;85;21708;-65
2022/11/13 12:27:12;;;;;;;2.47;1.35;;;;;;;14.61;100.00;100695.16;1626532;84;21117;-64
2022/11/13 12:30:09;;;;;;;1.25;1.07;;;;;;;14.52;100.00;100692.88;1638639;85;21461;-65
2022/11/13 12:33:19;;;;;;;1.35;1.00;;;;;;;14.40;100.00;100704.84;1639867;85;21857;-65
2022/11/13 12:36:08;;;;;;;0.80;0.80;;;;;;;14.23;100.00;100705.55;1634040;85;21556;-65
2022/11/13 12:39:27;;;;;;;1.45;1.10;;;;;;;14.07;100.00;100711.94;1639170;85;21528;-64
2022/11/13 12:42:33;;;;;;;1.62;1.20;;;;;;;13.93;100.00;100709.82;1640165;85;21608;-64
2022/11/13 12:45:40;;;;;;;2.40;1.62;;;;;;;13.86;100.00;100707.02;1636585;84;21465;-64
2022/11/13 12:48:32;;;;;;;1.40;0.90;;;;;;;13.82;100.00;100708.06;1599612;86;21899;-63
2022/11/13 12:51:18;;;;;;;3.30;1.05;;;;;;;13.74;100.00;100700.44;1620902;85;21088;-63
2022/11/13 12:54:03;;;;;;;1.72;1.40;;;;;;;13.71;100.00;100705.86;1648163;84;21545;-63
2022/11/13 12:56:48;;;;;;;1.42;1.32;;;;;;;13.68;100.00;100711.72;1619818;85;21605;-65
2022/11/13 12:59:40;;;;;;;1.87;1.40;;;;;;;13.62;100.00;100723.39;1628401;85;21641;-65
2022/11/13 13:03:18;;;;;;;2.05;1.35;;;;;;;13.48;100.00;100714.64;1660639;84;21896;-64
2022/11/13 13:06:41;;;;;;;1.20;1.10;;;;;;;13.38;100.00;100711.97;1631635;85;21741;-63
2022/11/13 13:09:54;;;;;;;1.65;1.25;;;;;;;13.28;100.00;100719.34;1650837;84;21597;-64
2022/11/13 13:13:29;;;;;;;2.87;2.00;;;;;;;13.19;100.00;100719.67;1651184;84;21509;-65
2022/11/13 13:16:25;;;;;;;3.05;1.62;;;;;;;13.10;100.00;100713.41;1624351;85;21700;-64
2022/11/13 13:19:27;;;;;;;1.40;1.22;;;;;;;12.93;100.00;100712.69;1637109;84;21805;-64
2022/11/13 13:22:31;;;;;;;2.67;1.40;;;;;;;12.81;100.00;100712.67;1654413;84;21557;-62
2022/11/13 13:25:33;;;;;;;2.58;1.55;;;;;;;12.70;100.00;100713.50;1660173;83;21510;-65
2022/11/13 13:28:22;;;;;;;3.08;1.37;;;;;;;12.62;100.00;100716.38;1622055;85;21459;-65
2022/11/13 13:31:38;;;;;;;2.40;1.60;;;;;;;12.52;100.00;100718.94;1655179;84;21628;-64
2022/11/13 13:34:44;;;;;;;2.62;1.70;;;;;;;12.50;100.00;100714.17;1614441;86;21850;-64
2022/11/13 13:37:44;;;;;;;3.02;1.55;;;;;;;12.41;100.00;100717.97;1620432;85;21518;-64
2022/11/13 13:40:40;;;;;;;3.42;1.55;;;;;;;12.36;100.00;100712.86;1646056;85;21569;-64
2022/11/13 13:43:54;;;;;;;1.57;1.30;;;;;;;12.28;100.00;100708.27;1618173;86;21482;-65
2022/11/13 13:46:38;;;;;;;1.92;1.65;;;;;;;12.22;100.00;100713.76;1593895;86;21583;-64
2022/11/13 13:49:23;;;;;;;1.85;1.52;;;;;;;12.16;100.00;100719.23;1623537;86;21796;-65
2022/11/13 13:52:13;;;;;;;1.85;1.52;;;;;;;12.10;100.00;100709.75;1611705;84;21624;-64
2022/11/13 13:55:00;;;;;;;2.15;1.75;;;;;;;12.04;100.00;100708.64;1660402;84;20997;-62
2022/11/13 13:57:45;;;;;;;2.85;1.60;;;;;;;11.94;100.00;100717.73;1654225;84;21486;-65
2022/11/13 14:00:29;;;;;;;2.10;1.87;;;;;;;11.86;100.00;100714.84;1648596;85;21502;-65
2022/11/13 14:03:19;;;;;;;2.30;2.00;;;;;;;11.81;100.00;100719.84;1641511;84;21853;-66
2022/11/13 14:06:12;;;;;;;2.00;1.82;;;;;;;11.72;100.00;100710.94;1612908;86;21558;-64
2022/11/13 14:09:17;;;;;;;2.37;2.00;;;;;;;11.61;100.00;100723.11;1629250;85;21554;-63
2022/11/13 14:12:06;;;;;;;3.50;2.30;;;;;;;11.56;100.00;100719.73;1645189;84;21478;-63
2022/11/13 14:14:52;;;;;;;2.20;2.00;;;;;;;11.50;100.00;100720.78;1631107;84;21494;-63
2022/11/13 14:17:39;;;;;;;;;;;;;;;11.42;100.00;100720.16;1631039;85;21517;-63
2022/11/13 14:20:24;;;;;;;2.65;2.35;;;;;;;11.25;100.00;100712.28;1636728;84;20445;-63
2022/11/13 14:23:12;;;;;;;2.47;1.80;;;;;;;11.22;100.00;100720.71;1630815;85;21529;-62
2022/11/13 14:25:57;;;;;;;3.62;2.40;;;;;;;11.17;100.00;100716.91;1647052;84;22113;-62
2022/11/13 14:28:53;;;;;;;2.12;2.00;;;;;;;11.10;100.00;100712.25;1662036;83;21588;-62
2022/11/13 14:31:38;;;;;;;2.47;2.22;;;;;;;11.06;100.00;100729.50;1643319;85;21998;-63
2022/11/13 14:34:22;;;;;;;3.60;1.77;;;;;;;10.98;100.00;100728.83;1617222;86;21486;-63
2022/11/13 14:37:39;;;;;;;2.05;1.85;;;;;;;10.90;100.00;100736.94;1629390;85;21545;-61
2022/11/13 14:40:26;;;;;;;;;;;;;;;10.80;100.00;100734.15;1648783;84;21450;-65
2022/11/13 14:43:19;;;;;;;3.12;2.00;;;;;;;10.65;100.00;100740.67;1641528;84;20467;-65
2022/11/13 14:46:05;;;;;;;2.35;2.15;;;;;;;10.61;100.00;100740.34;1646905;84;21755;-65
2022/11/13 14:48:54;;;;;;;1.82;1.70;;;;;;;10.57;100.00;100736.92;1644869;84;21505;-66
2022/11/13 14:51:39;;;;;;;4.17;1.90;;;;;;;10.54;100.00;100744.02;1637693;84;21617;-66
2022/11/13 15:41:24;;;;;;;2.90;2.35;;;;;;;7.58;100.00;100803.19;1771706;78;23154;-66
2022/11/13 15:44:13;;;;;;;4.50;2.60;;;;;;;8.06;100.00;100806.06;1729727;80;21463;-65
2022/11/13 15:46:58;;;;;;;3.67;2.75;;;;;;;8.23;100.00;100804.52;1737884;80;21834;-63
2022/11/13 15:49:44;;;;;;;3.42;2.72;;;;;;;8.34;100.00;100799.98;1746263;80;21601;-63
2022/11/13 15:52:33;;;;;;;4.25;2.72;;;;;;;8.47;100.00;100797.19;1741480;80;21014;-64
2022/11/13 15:55:28;;;;;;;2.92;2.70;;;;;;;8.58;100.00;100800.50;1740397;80;21687;-63
2022/11/13 15:58:18;;;;;;;5.90;2.80;;;;;;;8.66;100.00;100795.99;1730129;80;21600;-62
2022/11/13 16:01:01;;;;;;;4.58;3.30;;;;;;;8.73;100.00;100802.87;1740963;79;21904;-63
2022/11/13 16:03:48;;;;;;;4.60;3.40;;;;;;;8.81;100.00;100792.70;1722793;81;21046;-64
2022/11/13 16:06:34;;;;;;;6.58;3.90;;;;;;;8.83;100.00;100806.20;1737477;80;22519;-63
2022/11/13 16:09:20;;;;;;;4.67;3.98;;;;;;;8.87;100.00;100792.59;1732641;80;21665;-66
2022/11/13 16:12:10;;;;;;;6.37;4.45;;;;;;;8.90;100.00;100788.61;1743893;80;21489;-65
2022/11/13 16:14:56;;;;;;;6.40;4.53;;;;;;;8.92;100.00;100788.13;1733576;81;21817;-65
2022/11/13 16:17:45;;;;;;;4.80;4.30;;;;;;;8.91;100.00;100795.15;1743028;81;21416;-65
2022/11/13 16:20:32;;;;;;;7.17;4.72;;;;;;;8.91;100.00;100795.56;1729751;80;21498;-65
2022/11/13 16:23:17;;;;;;;4.58;4.10;;;;;;;8.87;100.00;100789.54;1734727;81;21037;-64
2022/11/13 16:26:03;;;;;;;6.03;4.03;;;;;;;8.88;100.00;100791.71;1723318;80;21553;-64
2022/11/13 16:28:51;;;;;;;4.97;3.85;;;;;;;8.88;100.00;100794.33;1721017;82;22165;-64
2022/11/13 16:31:36;;;;;;;6.55;3.70;;;;;;;8.87;100.00;100796.52;1722994;82;21581;-64
2022/11/13 16:34:45;;;;;;;4.83;3.33;;;;;;;8.83;100.00;100797.47;1732442;82;21593;-65
2022/11/13 16:37:31;;;;;;;3.90;3.50;;;;;;;8.82;100.00;100797.92;1732624;81;21513;-63
2022/11/13 16:40:24;;;;;;;3.70;3.40;;;;;;;8.83;100.00;100797.47;1725085;81;21617;-64
2022/11/13 16:43:11;;;;;;;4.45;3.72;;;;;;;8.82;100.00;100798.38;1737503;81;21459;-65
2022/11/13 16:45:58;;;;;;;4.87;4.30;;;;;;;8.81;100.00;100801.42;1738808;81;21628;-67
2022/11/13 16:48:44;;;;;;;7.83;4.30;;;;;;;8.77;100.00;100792.74;1739486;81;21045;-65
2022/11/13 16:51:29;;;;;;;4.42;4.03;;;;;;;8.75;100.00;100791.05;1730238;81;21664;-64
2022/11/13 16:54:14;;;;;;;5.60;4.35;;;;;;;8.73;100.00;100800.25;1735249;81;21416;-64
2022/11/13 16:57:00;;;;;;;4.33;3.92;;;;;;;8.72;100.00;100798.53;1732137;81;21833;-65
2022/11/13 16:59:45;;;;;;;4.87;4.20;;;;;;;8.69;100.00;100797.27;1730076;81;21069;-65
2022/11/13 17:02:30;;;;;;;5.08;4.30;;;;;;;8.67;100.00;100801.67;1735385;81;20986;-64
2022/11/13 17:05:16;;;;;;;4.75;4.22;;;;;;;8.66;100.00;100802.55;1735076;81;21084;-64
2022/11/13 17:08:02;;;;;;;4.90;3.80;;;;;;;8.67;100.00;100810.84;1731450;81;21052;-65
2022/11/13 17:10:56;;;;;;;4.15;3.75;;;;;;;8.71;100.00;100813.83;1697547;83;21476;-64
2022/11/13 17:13:41;;;;;;;4.72;4.03;;;;;;;8.69;100.00;100808.20;1690875;83;20965;-65
2022/11/13 17:16:28;;;;;;;4.95;3.70;;;;;;;8.69;100.00;100807.75;1687002;83;21682;-64
2022/11/13 17:19:13;;;;;;;4.95;3.95;;;;;;;8.68;100.00;100816.52;1687964;84;21438;-64
2022/11/13 17:21:58;;;;;;;4.70;4.00;;;;;;;8.69;100.00;100814.76;1689823;83;21687;-65
2022/11/13 17:24:45;;;;;;;4.33;3.60;;;;;;;8.70;100.00;100817.36;1658114;84;21772;-64
2022/11/13 17:27:30;;;;;;;6.12;3.42;;;;;;;8.70;100.00;100819.09;1655945;84;21603;-65
2022/11/13 17:30:16;;;;;;;4.10;3.75;;;;;;;8.69;100.00;100816.92;1657787;84;21535;-64
2022/11/13 17:33:01;;;;;;;4.20;3.80;;;;;;;8.66;100.00;100818.73;1646466;84;21625;-66
2022/11/13 17:35:54;;;;;;;7.30;4.05;;;;;;;8.63;100.00;100810.48;1656424;85;21945;-64